Terminal Aerodrome Forecast
Issued by NWS

Current Version | Previous Version | Graphics & Text | Print | Product List | Glossary On
Versions: 1 2 3 4 5 6 7 8 9 10 11 12 13 14 15 16 17 18 19 20 21 22 23
137
FTUS41 KPBZ 231729
TAFHLG
TAF
KHLG 231729Z 2318/2418 22009KT P6SM BKN025
      TEMPO 2318/2320 BKN015
     FM240000 18004KT P6SM BKN025
     FM240400 17005KT P6SM OVC035
     FM241400 18007KT P6SM SCT130=

USA.gov is the U.S. government's official web portal to all federal, state and local government web resources and services.